sensor_id;sensor_type;location;lat;lon;timestamp;P1;durP1;ratioP1;P2;durP2;ratioP2
6513;SDS011;3290;47.716;9.070;2023-04-16T00:01:30;5.40;;;4.30;;
6513;SDS011;3290;47.716;9.070;2023-04-16T00:03:55;9.87;;;5.30;;
6513;SDS011;3290;47.716;9.070;2023-04-16T00:06:21;12.20;;;4.73;;
6513;SDS011;3290;47.716;9.070;2023-04-16T00:08:46;6.63;;;4.30;;
6513;SDS011;3290;47.716;9.070;2023-04-16T00:11:12;7.10;;;5.13;;
6513;SDS011;3290;47.716;9.070;2023-04-16T00:13:37;7.37;;;5.80;;
6513;SDS011;3290;47.716;9.070;2023-04-16T00:16:02;6.27;;;4.97;;
6513;SDS011;3290;47.716;9.070;2023-04-16T00:18:28;6.50;;;5.13;;
6513;SDS011;3290;47.716;9.070;2023-04-16T00:20:54;7.10;;;5.53;;
6513;SDS011;3290;47.716;9.070;2023-04-16T00:23:19;8.97;;;5.60;;
6513;SDS011;3290;47.716;9.070;2023-04-16T00:25:45;7.13;;;5.63;;
6513;SDS011;3290;47.716;9.070;2023-04-16T00:28:11;7.10;;;5.30;;
6513;SDS011;3290;47.716;9.070;2023-04-16T00:30:36;9.17;;;5.53;;
6513;SDS011;3290;47.716;9.070;2023-04-16T00:33:02;8.80;;;4.47;;
6513;SDS011;3290;47.716;9.070;2023-04-16T00:35:28;5.70;;;5.13;;
6513;SDS011;3290;47.716;9.070;2023-04-16T00:37:54;6.33;;;5.20;;
6513;SDS011;3290;47.716;9.070;2023-04-16T00:40:19;6.43;;;4.63;;
6513;SDS011;3290;47.716;9.070;2023-04-16T00:42:45;6.13;;;4.63;;
6513;SDS011;3290;47.716;9.070;2023-04-16T00:45:10;4.20;;;3.77;;
6513;SDS011;3290;47.716;9.070;2023-04-16T00:47:36;3.30;;;2.93;;
6513;SDS011;3290;47.716;9.070;2023-04-16T00:50:02;2.40;;;2.00;;
6513;SDS011;3290;47.716;9.070;2023-04-16T00:52:28;2.63;;;2.17;;
6513;SDS011;3290;47.716;9.070;2023-04-16T00:54:56;2.27;;;2.07;;
6513;SDS011;3290;47.716;9.070;2023-04-16T00:57:22;3.63;;;2.00;;
6513;SDS011;3290;47.716;9.070;2023-04-16T00:59:48;2.33;;;2.13;;
6513;SDS011;3290;47.716;9.070;2023-04-16T01:02:14;2.43;;;2.00;;
6513;SDS011;3290;47.716;9.070;2023-04-16T01:04:40;2.10;;;2.00;;
6513;SDS011;3290;47.716;9.070;2023-04-16T01:07:05;4.30;;;2.60;;
6513;SDS011;3290;47.716;9.070;2023-04-16T01:09:31;2.37;;;1.80;;
6513;SDS011;3290;47.716;9.070;2023-04-16T01:11:56;2.17;;;2.07;;
6513;SDS011;3290;47.716;9.070;2023-04-16T01:14:21;2.80;;;1.77;;
6513;SDS011;3290;47.716;9.070;2023-04-16T01:16:47;2.07;;;1.97;;
6513;SDS011;3290;47.716;9.070;2023-04-16T01:19:12;2.40;;;2.20;;
6513;SDS011;3290;47.716;9.070;2023-04-16T01:21:37;3.27;;;2.70;;
6513;SDS011;3290;47.716;9.070;2023-04-16T01:24:03;2.53;;;2.20;;
6513;SDS011;3290;47.716;9.070;2023-04-16T01:26:29;3.20;;;2.40;;
6513;SDS011;3290;47.716;9.070;2023-04-16T01:28:55;2.93;;;2.40;;
6513;SDS011;3290;47.716;9.070;2023-04-16T01:31:20;2.23;;;2.07;;
6513;SDS011;3290;47.716;9.070;2023-04-16T01:33:46;7.57;;;2.87;;
6513;SDS011;3290;47.716;9.070;2023-04-16T01:36:11;4.13;;;2.40;;
6513;SDS011;3290;47.716;9.070;2023-04-16T01:38:36;2.60;;;2.40;;
6513;SDS011;3290;47.716;9.070;2023-04-16T01:41:02;4.37;;;2.20;;
6513;SDS011;3290;47.716;9.070;2023-04-16T01:43:27;2.80;;;2.27;;
6513;SDS011;3290;47.716;9.070;2023-04-16T01:45:56;2.27;;;2.07;;
6513;SDS011;3290;47.716;9.070;2023-04-16T01:48:35;2.83;;;2.53;;
6513;SDS011;3290;47.716;9.070;2023-04-16T01:51:00;5.37;;;3.30;;
6513;SDS011;3290;47.716;9.070;2023-04-16T01:53:25;3.90;;;2.87;;
6513;SDS011;3290;47.716;9.070;2023-04-16T01:55:51;5.03;;;3.07;;
6513;SDS011;3290;47.716;9.070;2023-04-16T01:58:16;4.83;;;3.10;;
6513;SDS011;3290;47.716;9.070;2023-04-16T02:00:41;7.40;;;4.13;;
6513;SDS011;3290;47.716;9.070;2023-04-16T02:03:07;8.20;;;4.50;;
6513;SDS011;3290;47.716;9.070;2023-04-16T02:05:33;5.73;;;3.80;;
6513;SDS011;3290;47.716;9.070;2023-04-16T02:07:59;6.43;;;4.47;;
6513;SDS011;3290;47.716;9.070;2023-04-16T02:10:24;7.47;;;4.70;;
6513;SDS011;3290;47.716;9.070;2023-04-16T02:12:49;5.90;;;4.70;;
6513;SDS011;3290;47.716;9.070;2023-04-16T02:15:15;6.43;;;4.90;;
6513;SDS011;3290;47.716;9.070;2023-04-16T02:17:40;6.30;;;4.23;;
6513;SDS011;3290;47.716;9.070;2023-04-16T02:20:06;5.63;;;4.40;;
6513;SDS011;3290;47.716;9.070;2023-04-16T02:22:33;8.20;;;4.63;;
6513;SDS011;3290;47.716;9.070;2023-04-16T02:24:58;6.00;;;4.17;;
6513;SDS011;3290;47.716;9.070;2023-04-16T02:27:24;8.30;;;4.77;;
6513;SDS011;3290;47.716;9.070;2023-04-16T02:29:49;6.07;;;4.90;;
6513;SDS011;3290;47.716;9.070;2023-04-16T02:32:15;8.93;;;4.60;;
6513;SDS011;3290;47.716;9.070;2023-04-16T02:34:40;6.23;;;4.07;;
6513;SDS011;3290;47.716;9.070;2023-04-16T02:37:06;5.57;;;4.13;;
6513;SDS011;3290;47.716;9.070;2023-04-16T02:39:32;5.07;;;4.57;;
6513;SDS011;3290;47.716;9.070;2023-04-16T02:41:57;6.30;;;3.67;;
6513;SDS011;3290;47.716;9.070;2023-04-16T02:44:24;3.37;;;3.07;;
6513;SDS011;3290;47.716;9.070;2023-04-16T02:46:50;3.70;;;2.97;;
6513;SDS011;3290;47.716;9.070;2023-04-16T02:49:15;3.47;;;2.73;;
6513;SDS011;3290;47.716;9.070;2023-04-16T02:51:40;6.03;;;2.80;;
6513;SDS011;3290;47.716;9.070;2023-04-16T02:54:06;3.00;;;2.60;;
6513;SDS011;3290;47.716;9.070;2023-04-16T02:56:31;2.63;;;2.43;;
6513;SDS011;3290;47.716;9.070;2023-04-16T02:58:56;2.87;;;2.37;;
6513;SDS011;3290;47.716;9.070;2023-04-16T03:01:22;5.50;;;3.00;;
6513;SDS011;3290;47.716;9.070;2023-04-16T03:03:47;3.00;;;2.63;;
6513;SDS011;3290;47.716;9.070;2023-04-16T03:06:12;5.93;;;3.23;;
6513;SDS011;3290;47.716;9.070;2023-04-16T03:08:38;2.67;;;2.47;;
6513;SDS011;3290;47.716;9.070;2023-04-16T03:11:03;4.40;;;2.97;;
6513;SDS011;3290;47.716;9.070;2023-04-16T03:13:29;3.30;;;3.00;;
6513;SDS011;3290;47.716;9.070;2023-04-16T03:15:54;3.37;;;2.87;;
6513;SDS011;3290;47.716;9.070;2023-04-16T03:18:19;11.73;;;3.10;;
6513;SDS011;3290;47.716;9.070;2023-04-16T03:20:45;4.40;;;3.40;;
6513;SDS011;3290;47.716;9.070;2023-04-16T03:23:10;4.33;;;3.20;;
6513;SDS011;3290;47.716;9.070;2023-04-16T03:25:35;3.83;;;3.13;;
6513;SDS011;3290;47.716;9.070;2023-04-16T03:28:01;3.97;;;3.53;;
6513;SDS011;3290;47.716;9.070;2023-04-16T03:30:27;4.70;;;3.33;;
6513;SDS011;3290;47.716;9.070;2023-04-16T03:32:53;4.97;;;3.23;;
6513;SDS011;3290;47.716;9.070;2023-04-16T03:35:18;5.23;;;4.00;;
6513;SDS011;3290;47.716;9.070;2023-04-16T03:37:43;4.97;;;4.03;;
6513;SDS011;3290;47.716;9.070;2023-04-16T03:40:09;4.30;;;3.53;;
6513;SDS011;3290;47.716;9.070;2023-04-16T03:42:35;4.90;;;4.03;;
6513;SDS011;3290;47.716;9.070;2023-04-16T03:45:01;5.20;;;3.40;;
6513;SDS011;3290;47.716;9.070;2023-04-16T03:47:27;4.47;;;3.70;;
6513;SDS011;3290;47.716;9.070;2023-04-16T03:49:53;4.77;;;4.20;;
6513;SDS011;3290;47.716;9.070;2023-04-16T03:52:18;6.20;;;4.13;;
6513;SDS011;3290;47.716;9.070;2023-04-16T03:54:43;4.90;;;4.00;;
6513;SDS011;3290;47.716;9.070;2023-04-16T03:57:09;5.20;;;4.10;;
6513;SDS011;3290;47.716;9.070;2023-04-16T03:59:34;7.30;;;4.60;;
6513;SDS011;3290;47.716;9.070;2023-04-16T04:01:59;6.80;;;4.30;;
6513;SDS011;3290;47.716;9.070;2023-04-16T04:04:25;5.97;;;4.30;;
6513;SDS011;3290;47.716;9.070;2023-04-16T04:06:51;4.03;;;3.50;;
6513;SDS011;3290;47.716;9.070;2023-04-16T04:09:16;4.87;;;4.37;;
6513;SDS011;3290;47.716;9.070;2023-04-16T04:11:41;5.40;;;3.87;;
6513;SDS011;3290;47.716;9.070;2023-04-16T04:14:07;5.10;;;4.20;;
6513;SDS011;3290;47.716;9.070;2023-04-16T04:16:33;7.63;;;4.63;;
6513;SDS011;3290;47.716;9.070;2023-04-16T04:18:58;5.00;;;4.33;;
6513;SDS011;3290;47.716;9.070;2023-04-16T04:21:24;7.63;;;5.37;;
6513;SDS011;3290;47.716;9.070;2023-04-16T04:23:51;6.47;;;5.10;;
6513;SDS011;3290;47.716;9.070;2023-04-16T04:26:16;7.40;;;5.70;;
6513;SDS011;3290;47.716;9.070;2023-04-16T04:28:42;9.80;;;6.50;;
6513;SDS011;3290;47.716;9.070;2023-04-16T04:31:07;8.80;;;6.70;;
6513;SDS011;3290;47.716;9.070;2023-04-16T04:33:32;9.00;;;6.53;;
6513;SDS011;3290;47.716;9.070;2023-04-16T04:35:58;8.23;;;6.00;;
6513;SDS011;3290;47.716;9.070;2023-04-16T04:38:23;8.87;;;6.43;;
6513;SDS011;3290;47.716;9.070;2023-04-16T04:40:52;8.47;;;6.07;;
6513;SDS011;3290;47.716;9.070;2023-04-16T04:43:18;9.80;;;6.80;;
6513;SDS011;3290;47.716;9.070;2023-04-16T04:45:44;8.93;;;6.20;;
6513;SDS011;3290;47.716;9.070;2023-04-16T04:48:10;6.40;;;5.33;;
6513;SDS011;3290;47.716;9.070;2023-04-16T04:50:35;8.13;;;5.23;;
6513;SDS011;3290;47.716;9.070;2023-04-16T04:53:01;7.63;;;5.73;;
6513;SDS011;3290;47.716;9.070;2023-04-16T04:55:26;7.17;;;5.10;;
6513;SDS011;3290;47.716;9.070;2023-04-16T04:57:52;6.63;;;5.23;;
6513;SDS011;3290;47.716;9.070;2023-04-16T05:00:17;6.30;;;4.77;;
6513;SDS011;3290;47.716;9.070;2023-04-16T05:02:42;6.80;;;5.10;;
6513;SDS011;3290;47.716;9.070;2023-04-16T05:05:08;6.80;;;4.53;;
6513;SDS011;3290;47.716;9.070;2023-04-16T05:07:33;7.53;;;5.40;;
6513;SDS011;3290;47.716;9.070;2023-04-16T05:09:59;7.40;;;5.30;;
6513;SDS011;3290;47.716;9.070;2023-04-16T05:12:24;7.83;;;5.73;;
6513;SDS011;3290;47.716;9.070;2023-04-16T05:14:50;9.80;;;5.40;;
6513;SDS011;3290;47.716;9.070;2023-04-16T05:17:15;7.10;;;5.30;;
6513;SDS011;3290;47.716;9.070;2023-04-16T05:19:40;6.30;;;5.17;;
6513;SDS011;3290;47.716;9.070;2023-04-16T05:22:06;5.10;;;4.43;;
6513;SDS011;3290;47.716;9.070;2023-04-16T05:24:31;5.37;;;4.33;;
6513;SDS011;3290;47.716;9.070;2023-04-16T05:26:57;4.97;;;4.40;;
6513;SDS011;3290;47.716;9.070;2023-04-16T05:29:22;5.17;;;4.30;;
6513;SDS011;3290;47.716;9.070;2023-04-16T05:31:48;5.83;;;4.37;;
6513;SDS011;3290;47.716;9.070;2023-04-16T05:34:13;7.03;;;4.80;;
6513;SDS011;3290;47.716;9.070;2023-04-16T05:36:39;7.13;;;5.23;;
6513;SDS011;3290;47.716;9.070;2023-04-16T05:39:04;6.73;;;5.30;;
6513;SDS011;3290;47.716;9.070;2023-04-16T05:41:30;6.50;;;4.53;;
6513;SDS011;3290;47.716;9.070;2023-04-16T05:43:55;6.50;;;4.80;;
6513;SDS011;3290;47.716;9.070;2023-04-16T05:46:20;5.00;;;4.20;;
6513;SDS011;3290;47.716;9.070;2023-04-16T05:48:46;6.07;;;4.97;;
6513;SDS011;3290;47.716;9.070;2023-04-16T05:51:11;7.70;;;5.20;;
6513;SDS011;3290;47.716;9.070;2023-04-16T05:53:36;7.03;;;5.53;;
6513;SDS011;3290;47.716;9.070;2023-04-16T05:56:02;9.20;;;5.00;;
6513;SDS011;3290;47.716;9.070;2023-04-16T05:58:27;5.60;;;5.00;;
6513;SDS011;3290;47.716;9.070;2023-04-16T06:00:52;7.93;;;5.20;;
6513;SDS011;3290;47.716;9.070;2023-04-16T06:03:18;6.90;;;4.90;;
6513;SDS011;3290;47.716;9.070;2023-04-16T06:05:43;9.63;;;5.20;;
6513;SDS011;3290;47.716;9.070;2023-04-16T06:08:09;5.40;;;4.03;;
6513;SDS011;3290;47.716;9.070;2023-04-16T06:10:34;5.87;;;4.63;;
6513;SDS011;3290;47.716;9.070;2023-04-16T06:13:00;4.47;;;4.00;;
6513;SDS011;3290;47.716;9.070;2023-04-16T06:15:25;3.83;;;3.53;;
6513;SDS011;3290;47.716;9.070;2023-04-16T06:17:51;4.93;;;3.87;;
6513;SDS011;3290;47.716;9.070;2023-04-16T06:20:16;4.43;;;3.90;;
6513;SDS011;3290;47.716;9.070;2023-04-16T06:22:41;5.67;;;3.20;;
6513;SDS011;3290;47.716;9.070;2023-04-16T06:25:07;4.00;;;3.40;;
6513;SDS011;3290;47.716;9.070;2023-04-16T06:27:33;4.80;;;3.30;;
6513;SDS011;3290;47.716;9.070;2023-04-16T06:29:58;3.53;;;3.23;;
6513;SDS011;3290;47.716;9.070;2023-04-16T06:32:23;3.43;;;2.70;;
6513;SDS011;3290;47.716;9.070;2023-04-16T06:34:49;4.00;;;2.80;;
6513;SDS011;3290;47.716;9.070;2023-04-16T06:37:15;3.47;;;3.07;;
6513;SDS011;3290;47.716;9.070;2023-04-16T06:39:40;4.20;;;2.90;;
6513;SDS011;3290;47.716;9.070;2023-04-16T06:42:06;3.63;;;2.97;;
6513;SDS011;3290;47.716;9.070;2023-04-16T06:44:31;3.60;;;3.17;;
6513;SDS011;3290;47.716;9.070;2023-04-16T06:46:57;3.40;;;3.10;;
6513;SDS011;3290;47.716;9.070;2023-04-16T06:49:22;4.23;;;3.30;;
6513;SDS011;3290;47.716;9.070;2023-04-16T06:51:47;4.17;;;3.23;;
6513;SDS011;3290;47.716;9.070;2023-04-16T06:54:13;3.17;;;2.87;;
6513;SDS011;3290;47.716;9.070;2023-04-16T06:56:38;4.00;;;3.03;;
6513;SDS011;3290;47.716;9.070;2023-04-16T06:59:03;3.37;;;3.00;;
6513;SDS011;3290;47.716;9.070;2023-04-16T07:01:29;2.77;;;2.57;;
6513;SDS011;3290;47.716;9.070;2023-04-16T07:03:57;3.40;;;3.10;;
6513;SDS011;3290;47.716;9.070;2023-04-16T07:06:22;3.90;;;3.50;;
6513;SDS011;3290;47.716;9.070;2023-04-16T07:08:48;4.50;;;3.50;;
6513;SDS011;3290;47.716;9.070;2023-04-16T07:11:13;4.27;;;2.93;;
6513;SDS011;3290;47.716;9.070;2023-04-16T07:13:38;4.07;;;2.60;;
6513;SDS011;3290;47.716;9.070;2023-04-16T07:16:04;4.00;;;2.80;;
6513;SDS011;3290;47.716;9.070;2023-04-16T07:18:29;4.33;;;3.40;;
6513;SDS011;3290;47.716;9.070;2023-04-16T07:20:55;5.90;;;4.30;;
6513;SDS011;3290;47.716;9.070;2023-04-16T07:23:21;5.40;;;4.40;;
6513;SDS011;3290;47.716;9.070;2023-04-16T07:25:46;7.23;;;3.87;;
6513;SDS011;3290;47.716;9.070;2023-04-16T07:28:12;4.00;;;3.30;;
6513;SDS011;3290;47.716;9.070;2023-04-16T07:30:37;5.13;;;3.60;;
6513;SDS011;3290;47.716;9.070;2023-04-16T07:33:03;6.90;;;4.40;;
6513;SDS011;3290;47.716;9.070;2023-04-16T07:35:29;4.87;;;3.80;;
6513;SDS011;3290;47.716;9.070;2023-04-16T07:37:55;5.20;;;4.10;;
6513;SDS011;3290;47.716;9.070;2023-04-16T07:40:20;9.07;;;4.40;;
6513;SDS011;3290;47.716;9.070;2023-04-16T07:42:45;6.20;;;4.73;;
6513;SDS011;3290;47.716;9.070;2023-04-16T07:45:11;5.57;;;4.40;;
6513;SDS011;3290;47.716;9.070;2023-04-16T07:47:36;5.40;;;3.93;;
6513;SDS011;3290;47.716;9.070;2023-04-16T07:50:02;5.87;;;4.63;;
6513;SDS011;3290;47.716;9.070;2023-04-16T07:52:27;5.33;;;4.13;;
6513;SDS011;3290;47.716;9.070;2023-04-16T07:54:53;5.23;;;4.03;;
6513;SDS011;3290;47.716;9.070;2023-04-16T07:57:18;4.47;;;3.50;;
6513;SDS011;3290;47.716;9.070;2023-04-16T07:59:43;5.13;;;3.70;;
6513;SDS011;3290;47.716;9.070;2023-04-16T08:02:11;5.40;;;4.40;;
6513;SDS011;3290;47.716;9.070;2023-04-16T08:04:39;5.80;;;4.30;;
6513;SDS011;3290;47.716;9.070;2023-04-16T08:07:05;5.50;;;4.40;;
6513;SDS011;3290;47.716;9.070;2023-04-16T08:09:31;6.87;;;4.90;;
6513;SDS011;3290;47.716;9.070;2023-04-16T08:11:56;6.77;;;4.77;;
6513;SDS011;3290;47.716;9.070;2023-04-16T08:14:21;4.90;;;4.20;;
6513;SDS011;3290;47.716;9.070;2023-04-16T08:16:47;6.80;;;5.30;;
6513;SDS011;3290;47.716;9.070;2023-04-16T08:19:12;7.00;;;5.30;;
6513;SDS011;3290;47.716;9.070;2023-04-16T08:21:37;7.37;;;5.43;;
6513;SDS011;3290;47.716;9.070;2023-04-16T08:24:03;6.77;;;4.77;;
6513;SDS011;3290;47.716;9.070;2023-04-16T08:26:28;7.40;;;4.97;;
6513;SDS011;3290;47.716;9.070;2023-04-16T08:28:54;6.30;;;5.13;;
6513;SDS011;3290;47.716;9.070;2023-04-16T08:31:19;6.63;;;5.30;;
6513;SDS011;3290;47.716;9.070;2023-04-16T08:33:45;9.10;;;6.20;;
6513;SDS011;3290;47.716;9.070;2023-04-16T08:36:10;7.23;;;5.13;;
6513;SDS011;3290;47.716;9.070;2023-04-16T08:38:35;6.80;;;3.87;;
6513;SDS011;3290;47.716;9.070;2023-04-16T08:41:01;6.27;;;5.00;;
6513;SDS011;3290;47.716;9.070;2023-04-16T08:43:30;5.90;;;3.83;;
6513;SDS011;3290;47.716;9.070;2023-04-16T08:45:58;3.93;;;3.37;;
6513;SDS011;3290;47.716;9.070;2023-04-16T08:48:25;4.70;;;3.47;;
6513;SDS011;3290;47.716;9.070;2023-04-16T08:50:56;5.60;;;3.83;;
6513;SDS011;3290;47.716;9.070;2023-04-16T08:53:34;4.80;;;4.30;;
6513;SDS011;3290;47.716;9.070;2023-04-16T08:56:06;4.10;;;3.70;;
6513;SDS011;3290;47.716;9.070;2023-04-16T08:58:33;3.53;;;3.20;;
6513;SDS011;3290;47.716;9.070;2023-04-16T09:01:02;3.90;;;3.50;;
6513;SDS011;3290;47.716;9.070;2023-04-16T09:03:28;4.60;;;3.70;;
6513;SDS011;3290;47.716;9.070;2023-04-16T09:05:56;7.27;;;3.40;;
6513;SDS011;3290;47.716;9.070;2023-04-16T09:08:23;4.40;;;3.20;;
6513;SDS011;3290;47.716;9.070;2023-04-16T09:10:49;3.97;;;3.27;;
6513;SDS011;3290;47.716;9.070;2023-04-16T09:13:15;3.73;;;3.37;;
6513;SDS011;3290;47.716;9.070;2023-04-16T09:15:44;7.80;;;3.60;;
6513;SDS011;3290;47.716;9.070;2023-04-16T09:18:10;5.00;;;4.20;;
6513;SDS011;3290;47.716;9.070;2023-04-16T09:20:36;5.90;;;3.73;;
6513;SDS011;3290;47.716;9.070;2023-04-16T09:23:02;3.53;;;3.07;;
6513;SDS011;3290;47.716;9.070;2023-04-16T09:25:31;6.73;;;3.37;;
6513;SDS011;3290;47.716;9.070;2023-04-16T09:27:58;4.40;;;3.53;;
6513;SDS011;3290;47.716;9.070;2023-04-16T09:30:24;6.60;;;3.67;;
6513;SDS011;3290;47.716;9.070;2023-04-16T09:32:52;5.93;;;3.47;;
6513;SDS011;3290;47.716;9.070;2023-04-16T09:35:43;6.87;;;4.30;;
6513;SDS011;3290;47.716;9.070;2023-04-16T09:38:10;5.20;;;4.20;;
6513;SDS011;3290;47.716;9.070;2023-04-16T09:40:35;4.50;;;3.67;;
6513;SDS011;3290;47.716;9.070;2023-04-16T09:43:02;6.60;;;4.60;;
6513;SDS011;3290;47.716;9.070;2023-04-16T09:45:46;5.37;;;4.70;;
6513;SDS011;3290;47.716;9.070;2023-04-16T09:48:28;6.13;;;3.90;;
6513;SDS011;3290;47.716;9.070;2023-04-16T09:50:56;6.43;;;3.90;;
6513;SDS011;3290;47.716;9.070;2023-04-16T09:53:25;7.80;;;3.70;;
6513;SDS011;3290;47.716;9.070;2023-04-16T09:55:56;4.50;;;3.37;;
6513;SDS011;3290;47.716;9.070;2023-04-16T09:58:25;4.63;;;3.27;;
6513;SDS011;3290;47.716;9.070;2023-04-16T10:00:55;6.20;;;3.80;;
6513;SDS011;3290;47.716;9.070;2023-04-16T10:03:31;3.80;;;3.27;;
6513;SDS011;3290;47.716;9.070;2023-04-16T10:05:58;5.23;;;4.03;;
6513;SDS011;3290;47.716;9.070;2023-04-16T10:08:50;5.13;;;3.47;;
6513;SDS011;3290;47.716;9.070;2023-04-16T10:11:18;4.70;;;3.30;;
6513;SDS011;3290;47.716;9.070;2023-04-16T10:13:44;3.37;;;2.97;;
6513;SDS011;3290;47.716;9.070;2023-04-16T10:16:10;2.90;;;2.10;;
6513;SDS011;3290;47.716;9.070;2023-04-16T10:18:37;2.70;;;2.30;;
6513;SDS011;3290;47.716;9.070;2023-04-16T10:21:04;5.57;;;3.40;;
6513;SDS011;3290;47.716;9.070;2023-04-16T10:23:31;4.87;;;4.13;;
6513;SDS011;3290;47.716;9.070;2023-04-16T10:25:57;5.80;;;4.60;;
6513;SDS011;3290;47.716;9.070;2023-04-16T10:28:24;6.80;;;4.73;;
6513;SDS011;3290;47.716;9.070;2023-04-16T10:30:50;6.90;;;4.43;;
6513;SDS011;3290;47.716;9.070;2023-04-16T10:33:22;5.17;;;3.90;;
6513;SDS011;3290;47.716;9.070;2023-04-16T10:35:51;5.47;;;4.80;;
6513;SDS011;3290;47.716;9.070;2023-04-16T10:38:31;5.57;;;4.50;;
6513;SDS011;3290;47.716;9.070;2023-04-16T10:41:03;7.70;;;5.13;;
6513;SDS011;3290;47.716;9.070;2023-04-16T10:43:31;4.23;;;3.60;;
6513;SDS011;3290;47.716;9.070;2023-04-16T10:46:18;12.87;;;5.00;;
6513;SDS011;3290;47.716;9.070;2023-04-16T10:48:47;6.23;;;4.03;;
6513;SDS011;3290;47.716;9.070;2023-04-16T10:51:30;7.67;;;4.40;;
6513;SDS011;3290;47.716;9.070;2023-04-16T10:56:32;4.07;;;3.63;;
6513;SDS011;3290;47.716;9.070;2023-04-16T10:58:58;9.27;;;7.20;;
6513;SDS011;3290;47.716;9.070;2023-04-16T11:01:30;5.73;;;4.50;;
6513;SDS011;3290;47.716;9.070;2023-04-16T11:03:58;8.80;;;6.33;;
6513;SDS011;3290;47.716;9.070;2023-04-16T11:06:25;8.13;;;5.27;;
6513;SDS011;3290;47.716;9.070;2023-04-16T11:08:52;10.40;;;5.87;;
6513;SDS011;3290;47.716;9.070;2023-04-16T11:11:17;4.90;;;4.13;;
6513;SDS011;3290;47.716;9.070;2023-04-16T11:13:43;4.30;;;2.53;;
6513;SDS011;3290;47.716;9.070;2023-04-16T11:16:10;4.37;;;3.40;;
6513;SDS011;3290;47.716;9.070;2023-04-16T11:18:39;3.10;;;2.80;;
6513;SDS011;3290;47.716;9.070;2023-04-16T11:21:09;3.43;;;3.13;;
6513;SDS011;3290;47.716;9.070;2023-04-16T11:23:48;5.93;;;4.50;;
6513;SDS011;3290;47.716;9.070;2023-04-16T11:26:25;8.37;;;4.73;;
6513;SDS011;3290;47.716;9.070;2023-04-16T11:28:52;5.10;;;3.80;;
6513;SDS011;3290;47.716;9.070;2023-04-16T11:31:19;4.90;;;3.70;;
6513;SDS011;3290;47.716;9.070;2023-04-16T11:33:45;5.07;;;3.43;;
6513;SDS011;3290;47.716;9.070;2023-04-16T11:36:10;3.73;;;3.07;;
6513;SDS011;3290;47.716;9.070;2023-04-16T11:38:36;4.03;;;3.20;;
6513;SDS011;3290;47.716;9.070;2023-04-16T11:41:05;4.20;;;3.33;;
6513;SDS011;3290;47.716;9.070;2023-04-16T11:43:30;4.90;;;3.70;;
6513;SDS011;3290;47.716;9.070;2023-04-16T11:48:23;3.93;;;3.00;;
6513;SDS011;3290;47.716;9.070;2023-04-16T11:50:55;5.00;;;4.17;;
6513;SDS011;3290;47.716;9.070;2023-04-16T11:53:21;4.40;;;3.87;;
6513;SDS011;3290;47.716;9.070;2023-04-16T11:55:46;3.80;;;3.43;;
6513;SDS011;3290;47.716;9.070;2023-04-16T11:58:12;7.53;;;4.60;;
6513;SDS011;3290;47.716;9.070;2023-04-16T12:00:40;6.00;;;3.50;;
6513;SDS011;3290;47.716;9.070;2023-04-16T12:03:06;5.30;;;3.40;;
6513;SDS011;3290;47.716;9.070;2023-04-16T12:05:33;3.20;;;2.90;;
6513;SDS011;3290;47.716;9.070;2023-04-16T12:08:00;3.67;;;2.83;;
6513;SDS011;3290;47.716;9.070;2023-04-16T12:10:28;3.07;;;2.77;;
6513;SDS011;3290;47.716;9.070;2023-04-16T12:13:10;4.13;;;3.40;;
6513;SDS011;3290;47.716;9.070;2023-04-16T12:15:44;4.10;;;3.50;;
6513;SDS011;3290;47.716;9.070;2023-04-16T12:18:11;5.03;;;3.73;;
6513;SDS011;3290;47.716;9.070;2023-04-16T12:20:39;5.40;;;3.70;;
6513;SDS011;3290;47.716;9.070;2023-04-16T12:23:06;5.17;;;3.70;;
6513;SDS011;3290;47.716;9.070;2023-04-16T12:25:32;4.97;;;3.90;;
6513;SDS011;3290;47.716;9.070;2023-04-16T12:27:57;4.33;;;3.60;;
6513;SDS011;3290;47.716;9.070;2023-04-16T12:30:23;6.20;;;3.43;;
6513;SDS011;3290;47.716;9.070;2023-04-16T12:32:51;4.53;;;3.57;;
6513;SDS011;3290;47.716;9.070;2023-04-16T12:35:37;4.17;;;3.27;;
6513;SDS011;3290;47.716;9.070;2023-04-16T12:38:02;4.80;;;4.33;;
6513;SDS011;3290;47.716;9.070;2023-04-16T12:40:28;6.43;;;3.20;;
6513;SDS011;3290;47.716;9.070;2023-04-16T12:42:53;4.60;;;3.50;;
6513;SDS011;3290;47.716;9.070;2023-04-16T12:45:19;3.67;;;3.03;;
6513;SDS011;3290;47.716;9.070;2023-04-16T12:47:45;6.67;;;3.97;;
6513;SDS011;3290;47.716;9.070;2023-04-16T12:50:11;7.97;;;5.70;;
6513;SDS011;3290;47.716;9.070;2023-04-16T12:52:36;7.80;;;5.40;;
6513;SDS011;3290;47.716;9.070;2023-04-16T12:55:01;4.20;;;3.20;;
6513;SDS011;3290;47.716;9.070;2023-04-16T12:57:27;3.70;;;3.10;;
6513;SDS011;3290;47.716;9.070;2023-04-16T12:59:53;6.77;;;5.23;;
6513;SDS011;3290;47.716;9.070;2023-04-16T13:02:20;5.77;;;4.93;;
6513;SDS011;3290;47.716;9.070;2023-04-16T13:04:45;5.10;;;4.13;;
6513;SDS011;3290;47.716;9.070;2023-04-16T13:07:10;4.27;;;3.57;;
6513;SDS011;3290;47.716;9.070;2023-04-16T13:09:36;8.43;;;5.97;;
6513;SDS011;3290;47.716;9.070;2023-04-16T13:12:01;4.27;;;3.57;;
6513;SDS011;3290;47.716;9.070;2023-04-16T13:14:27;7.70;;;3.70;;
6513;SDS011;3290;47.716;9.070;2023-04-16T13:16:52;6.60;;;3.40;;
6513;SDS011;3290;47.716;9.070;2023-04-16T13:19:17;5.20;;;3.67;;
6513;SDS011;3290;47.716;9.070;2023-04-16T13:21:43;7.10;;;4.90;;
6513;SDS011;3290;47.716;9.070;2023-04-16T13:24:08;5.73;;;5.00;;
6513;SDS011;3290;47.716;9.070;2023-04-16T13:26:34;7.37;;;5.30;;
6513;SDS011;3290;47.716;9.070;2023-04-16T13:28:59;8.60;;;6.30;;
6513;SDS011;3290;47.716;9.070;2023-04-16T13:31:25;10.07;;;6.73;;
6513;SDS011;3290;47.716;9.070;2023-04-16T13:33:50;11.43;;;7.57;;
6513;SDS011;3290;47.716;9.070;2023-04-16T13:36:16;8.93;;;6.83;;
6513;SDS011;3290;47.716;9.070;2023-04-16T13:38:41;11.30;;;7.60;;
6513;SDS011;3290;47.716;9.070;2023-04-16T13:41:06;10.87;;;7.70;;
6513;SDS011;3290;47.716;9.070;2023-04-16T13:43:32;10.73;;;7.23;;
6513;SDS011;3290;47.716;9.070;2023-04-16T13:45:57;12.20;;;8.47;;
6513;SDS011;3290;47.716;9.070;2023-04-16T13:48:24;11.40;;;8.27;;
6513;SDS011;3290;47.716;9.070;2023-04-16T13:50:50;13.10;;;8.37;;
6513;SDS011;3290;47.716;9.070;2023-04-16T13:53:15;10.63;;;7.43;;
6513;SDS011;3290;47.716;9.070;2023-04-16T13:55:41;12.97;;;8.40;;
6513;SDS011;3290;47.716;9.070;2023-04-16T13:58:07;12.03;;;8.03;;
6513;SDS011;3290;47.716;9.070;2023-04-16T14:00:32;11.70;;;9.23;;
6513;SDS011;3290;47.716;9.070;2023-04-16T14:02:58;15.33;;;8.93;;
6513;SDS011;3290;47.716;9.070;2023-04-16T14:05:23;14.03;;;8.83;;
6513;SDS011;3290;47.716;9.070;2023-04-16T14:07:48;12.20;;;8.70;;
6513;SDS011;3290;47.716;9.070;2023-04-16T14:10:14;14.17;;;9.77;;
6513;SDS011;3290;47.716;9.070;2023-04-16T14:12:41;15.57;;;10.17;;
6513;SDS011;3290;47.716;9.070;2023-04-16T14:15:08;15.43;;;10.33;;
6513;SDS011;3290;47.716;9.070;2023-04-16T14:17:34;15.80;;;10.13;;
6513;SDS011;3290;47.716;9.070;2023-04-16T14:20:01;14.70;;;9.40;;
6513;SDS011;3290;47.716;9.070;2023-04-16T14:22:30;14.03;;;9.60;;
6513;SDS011;3290;47.716;9.070;2023-04-16T14:24:55;13.50;;;9.67;;
6513;SDS011;3290;47.716;9.070;2023-04-16T14:27:21;13.93;;;9.13;;
6513;SDS011;3290;47.716;9.070;2023-04-16T14:29:46;12.03;;;8.40;;
6513;SDS011;3290;47.716;9.070;2023-04-16T14:32:12;13.63;;;9.47;;
6513;SDS011;3290;47.716;9.070;2023-04-16T14:34:37;14.23;;;9.50;;
6513;SDS011;3290;47.716;9.070;2023-04-16T14:37:03;14.43;;;10.10;;
6513;SDS011;3290;47.716;9.070;2023-04-16T14:39:29;15.97;;;10.77;;
6513;SDS011;3290;47.716;9.070;2023-04-16T14:41:55;15.37;;;9.90;;
6513;SDS011;3290;47.716;9.070;2023-04-16T14:44:20;13.70;;;8.83;;
6513;SDS011;3290;47.716;9.070;2023-04-16T14:46:46;14.33;;;9.50;;
6513;SDS011;3290;47.716;9.070;2023-04-16T14:49:12;14.53;;;10.43;;
6513;SDS011;3290;47.716;9.070;2023-04-16T14:51:38;18.90;;;12.40;;
6513;SDS011;3290;47.716;9.070;2023-04-16T14:54:04;14.37;;;10.70;;
6513;SDS011;3290;47.716;9.070;2023-04-16T14:56:29;17.27;;;11.10;;
6513;SDS011;3290;47.716;9.070;2023-04-16T14:58:55;17.60;;;12.20;;
6513;SDS011;3290;47.716;9.070;2023-04-16T15:01:20;27.23;;;16.20;;
6513;SDS011;3290;47.716;9.070;2023-04-16T15:03:46;19.47;;;12.40;;
6513;SDS011;3290;47.716;9.070;2023-04-16T15:06:11;14.47;;;9.50;;
6513;SDS011;3290;47.716;9.070;2023-04-16T15:08:37;23.83;;;14.87;;
6513;SDS011;3290;47.716;9.070;2023-04-16T15:11:02;18.60;;;11.00;;
6513;SDS011;3290;47.716;9.070;2023-04-16T15:13:27;16.30;;;10.60;;